< < Back
Terminal Aerodrome Forecast


Current Version              Previous Versions:   1  2  3  4  5  6  7  8  9  

Terminal Aerodrome Forecast

314
FTUS44 KOHX 221100
TAFCSV
TAF
KCSV 221120Z 2212/2312 06002KT 3SM BR BKN002
      TEMPO 2212/2213 1SM BR VV002
     FM221300 03006KT P6SM SKC=



Latest METAR

705
SAUS70 KWBC 221700 RRH
MTRCSV
METAR KCSV 221653Z AUTO 05009KT 020V090 10SM CLR 17/04 A3029 RMK AO2
SLP251 T01670044


USA.gov is the U.S. government's official web portal to all federal, state and local government web resources and services.